sensor_id;sensor_type;location;lat;lon;timestamp;temperature;humidity
4874;DHT22;2451;49.970;9.068;2022-08-26T00:01:58;22.40;99.90
4874;DHT22;2451;49.970;9.068;2022-08-26T00:04:24;22.40;99.90
4874;DHT22;2451;49.970;9.068;2022-08-26T00:06:50;22.40;99.90
4874;DHT22;2451;49.970;9.068;2022-08-26T00:09:16;22.50;99.90
4874;DHT22;2451;49.970;9.068;2022-08-26T00:11:42;22.50;99.90
4874;DHT22;2451;49.970;9.068;2022-08-26T00:14:08;22.50;99.90
4874;DHT22;2451;49.970;9.068;2022-08-26T00:16:33;22.50;99.90
4874;DHT22;2451;49.970;9.068;2022-08-26T00:18:59;22.50;99.90
4874;DHT22;2451;49.970;9.068;2022-08-26T00:21:24;22.50;99.90
4874;DHT22;2451;49.970;9.068;2022-08-26T00:23:50;22.50;99.90
4874;DHT22;2451;49.970;9.068;2022-08-26T00:26:16;22.50;99.90
4874;DHT22;2451;49.970;9.068;2022-08-26T00:28:42;22.50;99.90
4874;DHT22;2451;49.970;9.068;2022-08-26T00:31:07;22.40;99.90
4874;DHT22;2451;49.970;9.068;2022-08-26T00:33:33;22.40;99.90
4874;DHT22;2451;49.970;9.068;2022-08-26T00:35:58;22.40;99.90
4874;DHT22;2451;49.970;9.068;2022-08-26T00:38:24;22.40;99.90
4874;DHT22;2451;49.970;9.068;2022-08-26T00:40:52;22.40;99.90
4874;DHT22;2451;49.970;9.068;2022-08-26T00:43:19;22.40;99.90
4874;DHT22;2451;49.970;9.068;2022-08-26T00:45:58;22.30;99.90
4874;DHT22;2451;49.970;9.068;2022-08-26T00:48:27;22.40;99.90
4874;DHT22;2451;49.970;9.068;2022-08-26T00:51:00;22.40;99.90
4874;DHT22;2451;49.970;9.068;2022-08-26T00:53:30;22.40;99.90
4874;DHT22;2451;49.970;9.068;2022-08-26T00:56:05;22.40;99.90
4874;DHT22;2451;49.970;9.068;2022-08-26T00:58:34;22.40;99.90
4874;DHT22;2451;49.970;9.068;2022-08-26T01:01:01;22.40;99.90
4874;DHT22;2451;49.970;9.068;2022-08-26T01:03:28;22.50;99.90
4874;DHT22;2451;49.970;9.068;2022-08-26T01:05:56;22.50;99.90
4874;DHT22;2451;49.970;9.068;2022-08-26T01:08:23;22.50;99.90
4874;DHT22;2451;49.970;9.068;2022-08-26T01:10:49;22.50;99.90
4874;DHT22;2451;49.970;9.068;2022-08-26T01:13:16;22.40;99.90
4874;DHT22;2451;49.970;9.068;2022-08-26T01:15:45;22.40;99.90
4874;DHT22;2451;49.970;9.068;2022-08-26T01:18:12;22.30;99.90
4874;DHT22;2451;49.970;9.068;2022-08-26T01:23:42;22.30;99.90
4874;DHT22;2451;49.970;9.068;2022-08-26T01:26:12;22.30;99.90
4874;DHT22;2451;49.970;9.068;2022-08-26T01:28:40;22.20;99.90
4874;DHT22;2451;49.970;9.068;2022-08-26T01:31:08;22.10;99.90
4874;DHT22;2451;49.970;9.068;2022-08-26T01:33:43;22.10;99.90
4874;DHT22;2451;49.970;9.068;2022-08-26T01:36:12;22.10;99.90
4874;DHT22;2451;49.970;9.068;2022-08-26T01:38:39;22.10;99.90
4874;DHT22;2451;49.970;9.068;2022-08-26T01:41:05;22.10;99.90
4874;DHT22;2451;49.970;9.068;2022-08-26T01:43:33;22.10;99.90
4874;DHT22;2451;49.970;9.068;2022-08-26T01:46:01;22.00;99.90
4874;DHT22;2451;49.970;9.068;2022-08-26T01:48:31;22.00;99.90
4874;DHT22;2451;49.970;9.068;2022-08-26T01:51:00;21.90;99.90
4874;DHT22;2451;49.970;9.068;2022-08-26T01:53:28;21.80;99.90
4874;DHT22;2451;49.970;9.068;2022-08-26T01:55:56;21.70;99.90
4874;DHT22;2451;49.970;9.068;2022-08-26T01:58:27;21.70;99.90
4874;DHT22;2451;49.970;9.068;2022-08-26T02:00:54;21.60;99.90
4874;DHT22;2451;49.970;9.068;2022-08-26T02:03:20;21.60;99.90
4874;DHT22;2451;49.970;9.068;2022-08-26T02:05:59;21.60;99.90
4874;DHT22;2451;49.970;9.068;2022-08-26T02:08:29;21.60;99.90
4874;DHT22;2451;49.970;9.068;2022-08-26T02:10:57;21.60;99.90
4874;DHT22;2451;49.970;9.068;2022-08-26T02:13:25;21.60;99.90
4874;DHT22;2451;49.970;9.068;2022-08-26T02:15:52;21.60;99.90
4874;DHT22;2451;49.970;9.068;2022-08-26T02:18:18;21.60;99.90
4874;DHT22;2451;49.970;9.068;2022-08-26T02:20:44;21.60;99.90
4874;DHT22;2451;49.970;9.068;2022-08-26T02:23:09;21.60;99.90
4874;DHT22;2451;49.970;9.068;2022-08-26T02:25:59;21.60;99.90
4874;DHT22;2451;49.970;9.068;2022-08-26T02:28:30;21.60;99.90
4874;DHT22;2451;49.970;9.068;2022-08-26T02:30:57;21.50;99.90
4874;DHT22;2451;49.970;9.068;2022-08-26T02:33:22;21.50;99.90
4874;DHT22;2451;49.970;9.068;2022-08-26T02:35:48;21.50;99.90
4874;DHT22;2451;49.970;9.068;2022-08-26T02:38:13;21.50;99.90
4874;DHT22;2451;49.970;9.068;2022-08-26T02:40:41;21.40;99.90
4874;DHT22;2451;49.970;9.068;2022-08-26T02:43:08;21.40;99.90
4874;DHT22;2451;49.970;9.068;2022-08-26T02:45:34;21.40;99.90
4874;DHT22;2451;49.970;9.068;2022-08-26T02:48:10;21.30;99.90
4874;DHT22;2451;49.970;9.068;2022-08-26T02:50:36;21.20;99.90
4874;DHT22;2451;49.970;9.068;2022-08-26T02:53:03;21.20;99.90
4874;DHT22;2451;49.970;9.068;2022-08-26T02:55:29;21.20;99.90
4874;DHT22;2451;49.970;9.068;2022-08-26T02:57:58;21.20;99.90
4874;DHT22;2451;49.970;9.068;2022-08-26T03:00:24;21.20;99.90
4874;DHT22;2451;49.970;9.068;2022-08-26T03:02:50;21.20;99.90
4874;DHT22;2451;49.970;9.068;2022-08-26T03:05:16;21.20;99.90
4874;DHT22;2451;49.970;9.068;2022-08-26T03:07:44;21.20;99.90
4874;DHT22;2451;49.970;9.068;2022-08-26T03:10:10;21.30;99.90
4874;DHT22;2451;49.970;9.068;2022-08-26T03:12:37;21.30;99.90
4874;DHT22;2451;49.970;9.068;2022-08-26T03:15:03;21.30;99.90
4874;DHT22;2451;49.970;9.068;2022-08-26T03:17:29;21.40;99.90
4874;DHT22;2451;49.970;9.068;2022-08-26T03:19:55;21.40;99.90
4874;DHT22;2451;49.970;9.068;2022-08-26T03:22:20;21.40;99.90
4874;DHT22;2451;49.970;9.068;2022-08-26T03:24:46;21.40;99.90
4874;DHT22;2451;49.970;9.068;2022-08-26T03:27:12;21.50;99.90
4874;DHT22;2451;49.970;9.068;2022-08-26T03:29:38;21.50;99.90
4874;DHT22;2451;49.970;9.068;2022-08-26T03:32:22;21.50;99.90
4874;DHT22;2451;49.970;9.068;2022-08-26T03:34:47;21.50;99.90
4874;DHT22;2451;49.970;9.068;2022-08-26T03:37:13;21.50;99.90
4874;DHT22;2451;49.970;9.068;2022-08-26T03:39:39;21.40;99.90
4874;DHT22;2451;49.970;9.068;2022-08-26T03:42:04;21.40;99.90
4874;DHT22;2451;49.970;9.068;2022-08-26T03:44:30;21.40;99.90
4874;DHT22;2451;49.970;9.068;2022-08-26T03:46:56;21.40;99.90
4874;DHT22;2451;49.970;9.068;2022-08-26T03:49:22;21.40;99.90
4874;DHT22;2451;49.970;9.068;2022-08-26T03:51:48;21.40;99.90
4874;DHT22;2451;49.970;9.068;2022-08-26T03:54:13;21.40;99.90
4874;DHT22;2451;49.970;9.068;2022-08-26T03:56:39;21.40;99.90
4874;DHT22;2451;49.970;9.068;2022-08-26T03:59:05;21.30;99.90
4874;DHT22;2451;49.970;9.068;2022-08-26T04:01:30;21.20;99.90
4874;DHT22;2451;49.970;9.068;2022-08-26T04:03:56;21.20;99.90
4874;DHT22;2451;49.970;9.068;2022-08-26T04:06:33;21.20;99.90
4874;DHT22;2451;49.970;9.068;2022-08-26T04:09:03;21.20;99.90
4874;DHT22;2451;49.970;9.068;2022-08-26T04:11:31;21.20;99.90
4874;DHT22;2451;49.970;9.068;2022-08-26T04:13:58;21.20;99.90
4874;DHT22;2451;49.970;9.068;2022-08-26T04:16:26;21.20;99.90
4874;DHT22;2451;49.970;9.068;2022-08-26T04:18:52;21.10;99.90
4874;DHT22;2451;49.970;9.068;2022-08-26T04:21:17;21.10;99.90
4874;DHT22;2451;49.970;9.068;2022-08-26T04:23:43;21.10;99.90
4874;DHT22;2451;49.970;9.068;2022-08-26T04:26:09;21.10;99.90
4874;DHT22;2451;49.970;9.068;2022-08-26T04:28:34;21.00;99.90
4874;DHT22;2451;49.970;9.068;2022-08-26T04:31:00;20.90;99.90
4874;DHT22;2451;49.970;9.068;2022-08-26T04:33:25;20.90;99.90
4874;DHT22;2451;49.970;9.068;2022-08-26T04:36:01;20.90;99.90
4874;DHT22;2451;49.970;9.068;2022-08-26T04:38:28;21.00;99.90
4874;DHT22;2451;49.970;9.068;2022-08-26T04:40:53;21.00;99.90
4874;DHT22;2451;49.970;9.068;2022-08-26T04:43:19;21.00;99.90
4874;DHT22;2451;49.970;9.068;2022-08-26T04:45:44;20.90;99.90
4874;DHT22;2451;49.970;9.068;2022-08-26T04:48:10;20.90;99.90
4874;DHT22;2451;49.970;9.068;2022-08-26T04:50:36;20.90;99.90
4874;DHT22;2451;49.970;9.068;2022-08-26T04:53:02;20.90;99.90
4874;DHT22;2451;49.970;9.068;2022-08-26T04:55:28;20.90;99.90
4874;DHT22;2451;49.970;9.068;2022-08-26T04:57:55;21.00;99.90
4874;DHT22;2451;49.970;9.068;2022-08-26T05:00:20;21.00;99.90
4874;DHT22;2451;49.970;9.068;2022-08-26T05:02:46;21.00;99.90
4874;DHT22;2451;49.970;9.068;2022-08-26T05:05:12;21.00;99.90
4874;DHT22;2451;49.970;9.068;2022-08-26T05:07:39;20.90;99.90
4874;DHT22;2451;49.970;9.068;2022-08-26T05:10:06;21.00;99.90
4874;DHT22;2451;49.970;9.068;2022-08-26T05:12:32;21.00;99.90
4874;DHT22;2451;49.970;9.068;2022-08-26T05:14:57;21.10;99.90
4874;DHT22;2451;49.970;9.068;2022-08-26T05:17:24;21.20;99.90
4874;DHT22;2451;49.970;9.068;2022-08-26T05:19:51;21.20;99.90
4874;DHT22;2451;49.970;9.068;2022-08-26T05:22:17;21.30;99.90
4874;DHT22;2451;49.970;9.068;2022-08-26T05:24:43;21.40;99.90
4874;DHT22;2451;49.970;9.068;2022-08-26T05:27:10;21.50;99.90
4874;DHT22;2451;49.970;9.068;2022-08-26T05:29:36;21.50;99.90
4874;DHT22;2451;49.970;9.068;2022-08-26T05:32:02;21.60;99.90
4874;DHT22;2451;49.970;9.068;2022-08-26T05:34:28;21.70;99.90
4874;DHT22;2451;49.970;9.068;2022-08-26T05:36:53;21.70;99.90
4874;DHT22;2451;49.970;9.068;2022-08-26T05:39:19;21.80;99.90
4874;DHT22;2451;49.970;9.068;2022-08-26T05:41:47;21.90;99.90
4874;DHT22;2451;49.970;9.068;2022-08-26T05:44:14;22.00;99.90
4874;DHT22;2451;49.970;9.068;2022-08-26T05:46:41;22.10;99.90
4874;DHT22;2451;49.970;9.068;2022-08-26T05:49:07;22.20;99.90
4874;DHT22;2451;49.970;9.068;2022-08-26T05:51:33;22.20;99.90
4874;DHT22;2451;49.970;9.068;2022-08-26T05:54:01;22.20;99.90
4874;DHT22;2451;49.970;9.068;2022-08-26T05:56:27;22.20;99.90
4874;DHT22;2451;49.970;9.068;2022-08-26T05:58:54;22.30;99.90
4874;DHT22;2451;49.970;9.068;2022-08-26T06:01:23;22.30;99.90
4874;DHT22;2451;49.970;9.068;2022-08-26T06:03:54;22.40;99.90
4874;DHT22;2451;49.970;9.068;2022-08-26T06:06:25;22.40;99.90
4874;DHT22;2451;49.970;9.068;2022-08-26T06:08:52;22.50;99.90
4874;DHT22;2451;49.970;9.068;2022-08-26T06:11:20;22.50;99.90
4874;DHT22;2451;49.970;9.068;2022-08-26T06:13:46;22.60;99.90
4874;DHT22;2451;49.970;9.068;2022-08-26T06:16:14;22.70;99.90
4874;DHT22;2451;49.970;9.068;2022-08-26T06:18:42;22.70;99.90
4874;DHT22;2451;49.970;9.068;2022-08-26T06:21:13;22.70;99.90
4874;DHT22;2451;49.970;9.068;2022-08-26T06:23:39;22.80;99.90
4874;DHT22;2451;49.970;9.068;2022-08-26T06:26:23;22.80;99.90
4874;DHT22;2451;49.970;9.068;2022-08-26T06:28:49;22.90;99.90
4874;DHT22;2451;49.970;9.068;2022-08-26T06:31:15;23.00;99.90
4874;DHT22;2451;49.970;9.068;2022-08-26T06:33:43;23.10;99.90
4874;DHT22;2451;49.970;9.068;2022-08-26T06:36:18;23.30;99.90
4874;DHT22;2451;49.970;9.068;2022-08-26T06:38:48;23.50;99.90
4874;DHT22;2451;49.970;9.068;2022-08-26T06:41:15;23.70;99.90
4874;DHT22;2451;49.970;9.068;2022-08-26T06:43:41;23.80;99.90
4874;DHT22;2451;49.970;9.068;2022-08-26T06:46:09;23.90;99.90
4874;DHT22;2451;49.970;9.068;2022-08-26T06:48:36;24.10;99.90
4874;DHT22;2451;49.970;9.068;2022-08-26T06:51:18;24.20;99.90
4874;DHT22;2451;49.970;9.068;2022-08-26T06:53:46;24.40;99.90
4874;DHT22;2451;49.970;9.068;2022-08-26T06:56:15;24.60;99.90
4874;DHT22;2451;49.970;9.068;2022-08-26T06:58:42;24.80;99.90
4874;DHT22;2451;49.970;9.068;2022-08-26T07:01:19;24.90;99.90
4874;DHT22;2451;49.970;9.068;2022-08-26T07:03:46;25.20;99.90
4874;DHT22;2451;49.970;9.068;2022-08-26T07:06:12;25.30;99.90
4874;DHT22;2451;49.970;9.068;2022-08-26T07:08:38;25.30;99.90
4874;DHT22;2451;49.970;9.068;2022-08-26T07:11:08;25.40;99.90
4874;DHT22;2451;49.970;9.068;2022-08-26T07:13:34;25.60;99.90
4874;DHT22;2451;49.970;9.068;2022-08-26T07:16:06;25.70;99.90
4874;DHT22;2451;49.970;9.068;2022-08-26T07:18:33;26.00;99.90
4874;DHT22;2451;49.970;9.068;2022-08-26T07:21:05;26.30;99.90
4874;DHT22;2451;49.970;9.068;2022-08-26T07:23:31;26.60;99.90
4874;DHT22;2451;49.970;9.068;2022-08-26T07:25:57;26.90;99.90
4874;DHT22;2451;49.970;9.068;2022-08-26T07:28:23;27.30;99.90
4874;DHT22;2451;49.970;9.068;2022-08-26T07:30:49;27.70;99.90
4874;DHT22;2451;49.970;9.068;2022-08-26T07:33:15;27.90;99.90
4874;DHT22;2451;49.970;9.068;2022-08-26T07:35:42;28.30;99.90
4874;DHT22;2451;49.970;9.068;2022-08-26T07:38:09;28.30;99.90
4874;DHT22;2451;49.970;9.068;2022-08-26T07:40:35;28.50;99.90
4874;DHT22;2451;49.970;9.068;2022-08-26T07:43:01;28.80;99.90
4874;DHT22;2451;49.970;9.068;2022-08-26T07:45:28;29.00;99.90
4874;DHT22;2451;49.970;9.068;2022-08-26T07:47:53;29.00;99.90
4874;DHT22;2451;49.970;9.068;2022-08-26T07:50:19;29.00;99.90
4874;DHT22;2451;49.970;9.068;2022-08-26T07:52:47;28.80;99.90
4874;DHT22;2451;49.970;9.068;2022-08-26T07:55:12;28.80;99.90
4874;DHT22;2451;49.970;9.068;2022-08-26T07:57:38;29.00;99.90
4874;DHT22;2451;49.970;9.068;2022-08-26T08:00:05;29.10;99.90
4874;DHT22;2451;49.970;9.068;2022-08-26T08:02:32;29.10;99.90
4874;DHT22;2451;49.970;9.068;2022-08-26T08:04:58;29.40;99.90
4874;DHT22;2451;49.970;9.068;2022-08-26T08:07:24;29.40;99.90
4874;DHT22;2451;49.970;9.068;2022-08-26T08:09:50;29.60;99.90
4874;DHT22;2451;49.970;9.068;2022-08-26T08:12:17;29.80;99.90
4874;DHT22;2451;49.970;9.068;2022-08-26T08:14:43;29.90;99.90
4874;DHT22;2451;49.970;9.068;2022-08-26T08:17:11;30.10;99.80
4874;DHT22;2451;49.970;9.068;2022-08-26T08:19:37;30.20;98.80
4874;DHT22;2451;49.970;9.068;2022-08-26T08:22:03;30.20;99.10
4874;DHT22;2451;49.970;9.068;2022-08-26T08:24:30;30.30;98.70
4874;DHT22;2451;49.970;9.068;2022-08-26T08:26:57;30.10;98.40
4874;DHT22;2451;49.970;9.068;2022-08-26T08:29:23;30.20;98.70
4874;DHT22;2451;49.970;9.068;2022-08-26T08:31:49;30.30;98.00
4874;DHT22;2451;49.970;9.068;2022-08-26T08:34:16;30.30;97.60
4874;DHT22;2451;49.970;9.068;2022-08-26T08:36:42;30.20;97.30
4874;DHT22;2451;49.970;9.068;2022-08-26T08:39:07;30.10;97.40
4874;DHT22;2451;49.970;9.068;2022-08-26T08:42:32;30.40;97.00
4874;DHT22;2451;49.970;9.068;2022-08-26T08:44:32;30.40;96.40
4874;DHT22;2451;49.970;9.068;2022-08-26T08:47:04;30.60;96.80
4874;DHT22;2451;49.970;9.068;2022-08-26T08:49:34;30.90;96.00
4874;DHT22;2451;49.970;9.068;2022-08-26T08:52:25;30.90;95.50
4874;DHT22;2451;49.970;9.068;2022-08-26T08:54:53;31.10;95.40
4874;DHT22;2451;49.970;9.068;2022-08-26T08:57:44;31.20;94.90
4874;DHT22;2451;49.970;9.068;2022-08-26T09:00:16;31.00;94.20
4874;DHT22;2451;49.970;9.068;2022-08-26T09:02:51;31.00;94.60
4874;DHT22;2451;49.970;9.068;2022-08-26T09:05:24;31.00;94.60
4874;DHT22;2451;49.970;9.068;2022-08-26T09:08:04;30.90;94.30
4874;DHT22;2451;49.970;9.068;2022-08-26T09:13:00;30.50;94.80
4874;DHT22;2451;49.970;9.068;2022-08-26T09:15:45;30.40;94.60
4874;DHT22;2451;49.970;9.068;2022-08-26T09:21:20;30.40;95.20
4874;DHT22;2451;49.970;9.068;2022-08-26T09:23:48;30.40;95.30
4874;DHT22;2451;49.970;9.068;2022-08-26T09:26:17;30.30;95.30
4874;DHT22;2451;49.970;9.068;2022-08-26T09:28:52;30.40;94.80
4874;DHT22;2451;49.970;9.068;2022-08-26T09:31:23;30.40;95.20
4874;DHT22;2451;49.970;9.068;2022-08-26T09:34:13;30.40;95.30
4874;DHT22;2451;49.970;9.068;2022-08-26T09:36:41;30.40;94.90
4874;DHT22;2451;49.970;9.068;2022-08-26T09:39:30;30.80;95.40
4874;DHT22;2451;49.970;9.068;2022-08-26T09:42:20;31.10;94.70
4874;DHT22;2451;49.970;9.068;2022-08-26T09:47:29;31.40;93.80
4874;DHT22;2451;49.970;9.068;2022-08-26T09:52:26;31.60;93.00
4874;DHT22;2451;49.970;9.068;2022-08-26T09:55:03;31.80;92.70
4874;DHT22;2451;49.970;9.068;2022-08-26T09:57:33;32.30;92.00
4874;DHT22;2451;49.970;9.068;2022-08-26T09:59:59;32.70;91.80
4874;DHT22;2451;49.970;9.068;2022-08-26T10:02:35;33.10;90.90
4874;DHT22;2451;49.970;9.068;2022-08-26T10:05:06;33.40;90.90
4874;DHT22;2451;49.970;9.068;2022-08-26T10:07:52;33.70;90.10
4874;DHT22;2451;49.970;9.068;2022-08-26T10:10:32;33.80;88.20
4874;DHT22;2451;49.970;9.068;2022-08-26T10:13:13;33.60;86.40
4874;DHT22;2451;49.970;9.068;2022-08-26T10:15:58;33.30;86.90
4874;DHT22;2451;49.970;9.068;2022-08-26T10:18:31;33.50;87.20
4874;DHT22;2451;49.970;9.068;2022-08-26T10:21:05;33.90;86.10
4874;DHT22;2451;49.970;9.068;2022-08-26T10:23:36;34.50;85.20
4874;DHT22;2451;49.970;9.068;2022-08-26T10:26:40;34.80;82.80
4874;DHT22;2451;49.970;9.068;2022-08-26T10:29:12;35.20;80.30
4874;DHT22;2451;49.970;9.068;2022-08-26T10:31:45;35.60;77.60
4874;DHT22;2451;49.970;9.068;2022-08-26T10:34:15;35.60;78.20
4874;DHT22;2451;49.970;9.068;2022-08-26T10:37:11;35.90;76.20
4874;DHT22;2451;49.970;9.068;2022-08-26T10:39:50;36.10;75.00
4874;DHT22;2451;49.970;9.068;2022-08-26T10:42:42;36.50;71.90
4874;DHT22;2451;49.970;9.068;2022-08-26T10:45:14;36.60;69.20
4874;DHT22;2451;49.970;9.068;2022-08-26T10:50:38;36.70;68.70
4874;DHT22;2451;49.970;9.068;2022-08-26T10:55:58;37.30;65.60
4874;DHT22;2451;49.970;9.068;2022-08-26T10:58:50;37.50;64.50
4874;DHT22;2451;49.970;9.068;2022-08-26T11:06:36;38.00;61.10
4874;DHT22;2451;49.970;9.068;2022-08-26T11:09:05;37.80;59.70
4874;DHT22;2451;49.970;9.068;2022-08-26T11:11:42;37.80;60.20
4874;DHT22;2451;49.970;9.068;2022-08-26T11:16:45;38.00;59.20
4874;DHT22;2451;49.970;9.068;2022-08-26T11:22:05;37.60;58.10
4874;DHT22;2451;49.970;9.068;2022-08-26T11:29:59;36.10;58.90
4874;DHT22;2451;49.970;9.068;2022-08-26T11:32:54;35.90;59.90
4874;DHT22;2451;49.970;9.068;2022-08-26T11:38:16;34.70;62.40
4874;DHT22;2451;49.970;9.068;2022-08-26T11:40:42;34.40;63.00
4874;DHT22;2451;49.970;9.068;2022-08-26T11:43:20;34.20;63.70
4874;DHT22;2451;49.970;9.068;2022-08-26T11:45:58;33.90;64.60
4874;DHT22;2451;49.970;9.068;2022-08-26T11:48:31;33.50;63.40
4874;DHT22;2451;49.970;9.068;2022-08-26T11:50:59;33.20;62.60
4874;DHT22;2451;49.970;9.068;2022-08-26T11:53:26;33.00;65.20
4874;DHT22;2451;49.970;9.068;2022-08-26T11:55:54;32.60;68.20
4874;DHT22;2451;49.970;9.068;2022-08-26T11:58:22;32.30;69.20
4874;DHT22;2451;49.970;9.068;2022-08-26T12:01:03;32.00;69.80
4874;DHT22;2451;49.970;9.068;2022-08-26T12:03:38;31.90;71.00
4874;DHT22;2451;49.970;9.068;2022-08-26T12:06:14;31.60;71.80
4874;DHT22;2451;49.970;9.068;2022-08-26T12:08:42;31.40;72.70
4874;DHT22;2451;49.970;9.068;2022-08-26T12:11:20;31.20;73.00
4874;DHT22;2451;49.970;9.068;2022-08-26T12:14:20;31.00;74.00
4874;DHT22;2451;49.970;9.068;2022-08-26T12:16:46;30.80;75.20
4874;DHT22;2451;49.970;9.068;2022-08-26T12:19:31;30.70;75.20
4874;DHT22;2451;49.970;9.068;2022-08-26T12:22:05;30.50;75.90
4874;DHT22;2451;49.970;9.068;2022-08-26T12:24:31;30.40;77.00
4874;DHT22;2451;49.970;9.068;2022-08-26T12:29:41;30.30;77.60
4874;DHT22;2451;49.970;9.068;2022-08-26T12:32:15;30.20;78.00
4874;DHT22;2451;49.970;9.068;2022-08-26T12:34:43;30.10;78.70
4874;DHT22;2451;49.970;9.068;2022-08-26T12:37:12;29.90;81.60
4874;DHT22;2451;49.970;9.068;2022-08-26T12:39:41;29.80;84.00
4874;DHT22;2451;49.970;9.068;2022-08-26T12:47:33;29.50;88.00
4874;DHT22;2451;49.970;9.068;2022-08-26T12:52:27;29.20;94.00
4874;DHT22;2451;49.970;9.068;2022-08-26T12:55:03;29.10;94.70
4874;DHT22;2451;49.970;9.068;2022-08-26T12:57:35;28.90;95.80
4874;DHT22;2451;49.970;9.068;2022-08-26T13:00:54;28.90;97.50
4874;DHT22;2451;49.970;9.068;2022-08-26T13:14:02;28.40;99.90
4874;DHT22;2451;49.970;9.068;2022-08-26T13:16:28;28.10;99.90
4874;DHT22;2451;49.970;9.068;2022-08-26T13:18:57;28.00;99.90
4874;DHT22;2451;49.970;9.068;2022-08-26T13:21:32;27.80;99.90
4874;DHT22;2451;49.970;9.068;2022-08-26T13:24:07;27.80;99.90
4874;DHT22;2451;49.970;9.068;2022-08-26T13:26:33;27.80;99.90
4874;DHT22;2451;49.970;9.068;2022-08-26T13:29:00;27.90;99.90
4874;DHT22;2451;49.970;9.068;2022-08-26T13:31:29;28.00;99.80
4874;DHT22;2451;49.970;9.068;2022-08-26T13:33:55;28.00;99.90
4874;DHT22;2451;49.970;9.068;2022-08-26T13:36:21;28.00;99.90
4874;DHT22;2451;49.970;9.068;2022-08-26T13:38:46;28.10;99.90
4874;DHT22;2451;49.970;9.068;2022-08-26T13:41:12;28.20;99.90
4874;DHT22;2451;49.970;9.068;2022-08-26T13:43:38;28.20;99.80
4874;DHT22;2451;49.970;9.068;2022-08-26T13:46:04;28.40;99.90
4874;DHT22;2451;49.970;9.068;2022-08-26T13:48:30;28.50;99.90
4874;DHT22;2451;49.970;9.068;2022-08-26T13:50:56;28.60;99.90
4874;DHT22;2451;49.970;9.068;2022-08-26T13:53:22;28.70;99.90
4874;DHT22;2451;49.970;9.068;2022-08-26T13:55:48;28.90;99.90
4874;DHT22;2451;49.970;9.068;2022-08-26T13:58:14;28.90;99.90
4874;DHT22;2451;49.970;9.068;2022-08-26T14:00:40;29.00;99.90
4874;DHT22;2451;49.970;9.068;2022-08-26T14:03:07;29.00;99.20
4874;DHT22;2451;49.970;9.068;2022-08-26T14:05:33;28.90;99.20
4874;DHT22;2451;49.970;9.068;2022-08-26T14:07:59;28.90;99.10
4874;DHT22;2451;49.970;9.068;2022-08-26T14:10:25;28.90;98.90
4874;DHT22;2451;49.970;9.068;2022-08-26T14:12:52;29.00;99.30
4874;DHT22;2451;49.970;9.068;2022-08-26T14:15:18;29.10;99.20
4874;DHT22;2451;49.970;9.068;2022-08-26T14:17:44;29.10;98.80
4874;DHT22;2451;49.970;9.068;2022-08-26T14:20:15;29.20;98.30
4874;DHT22;2451;49.970;9.068;2022-08-26T14:22:44;29.40;98.10
4874;DHT22;2451;49.970;9.068;2022-08-26T14:25:11;29.50;98.30
4874;DHT22;2451;49.970;9.068;2022-08-26T14:27:37;29.50;98.50
4874;DHT22;2451;49.970;9.068;2022-08-26T14:30:03;29.60;98.50
4874;DHT22;2451;49.970;9.068;2022-08-26T14:32:28;29.70;97.80
4874;DHT22;2451;49.970;9.068;2022-08-26T14:34:55;29.70;98.00
4874;DHT22;2451;49.970;9.068;2022-08-26T14:37:21;29.70;98.60
4874;DHT22;2451;49.970;9.068;2022-08-26T14:39:47;29.80;97.90
4874;DHT22;2451;49.970;9.068;2022-08-26T14:42:15;29.80;97.40
4874;DHT22;2451;49.970;9.068;2022-08-26T14:44:43;29.90;96.80
4874;DHT22;2451;49.970;9.068;2022-08-26T14:47:10;30.00;96.00
4874;DHT22;2451;49.970;9.068;2022-08-26T14:49:35;29.90;97.00
4874;DHT22;2451;49.970;9.068;2022-08-26T14:52:01;29.90;97.00
4874;DHT22;2451;49.970;9.068;2022-08-26T14:54:27;29.90;97.40
4874;DHT22;2451;49.970;9.068;2022-08-26T14:57:04;29.90;96.60
4874;DHT22;2451;49.970;9.068;2022-08-26T14:59:33;29.90;96.10
4874;DHT22;2451;49.970;9.068;2022-08-26T15:01:59;29.90;96.80
4874;DHT22;2451;49.970;9.068;2022-08-26T15:04:25;30.00;96.40
4874;DHT22;2451;49.970;9.068;2022-08-26T15:06:52;30.10;96.30
4874;DHT22;2451;49.970;9.068;2022-08-26T15:09:19;30.30;97.10
4874;DHT22;2451;49.970;9.068;2022-08-26T15:11:44;30.40;98.50
4874;DHT22;2451;49.970;9.068;2022-08-26T15:14:10;30.50;97.80
4874;DHT22;2451;49.970;9.068;2022-08-26T15:16:36;30.20;96.20
4874;DHT22;2451;49.970;9.068;2022-08-26T15:19:03;29.90;96.00
4874;DHT22;2451;49.970;9.068;2022-08-26T15:21:30;29.60;96.40
4874;DHT22;2451;49.970;9.068;2022-08-26T15:23:56;29.50;96.40
4874;DHT22;2451;49.970;9.068;2022-08-26T15:26:22;29.20;95.40
4874;DHT22;2451;49.970;9.068;2022-08-26T15:28:48;29.00;95.00
4874;DHT22;2451;49.970;9.068;2022-08-26T15:31:14;28.80;94.80
4874;DHT22;2451;49.970;9.068;2022-08-26T15:33:39;28.60;95.00
4874;DHT22;2451;49.970;9.068;2022-08-26T15:36:06;28.50;95.20
4874;DHT22;2451;49.970;9.068;2022-08-26T15:38:35;28.30;95.70
4874;DHT22;2451;49.970;9.068;2022-08-26T15:41:01;28.20;96.40
4874;DHT22;2451;49.970;9.068;2022-08-26T15:43:27;28.10;96.00
4874;DHT22;2451;49.970;9.068;2022-08-26T15:45:53;28.00;96.20
4874;DHT22;2451;49.970;9.068;2022-08-26T15:48:20;28.00;96.10
4874;DHT22;2451;49.970;9.068;2022-08-26T15:50:58;28.00;96.20
4874;DHT22;2451;49.970;9.068;2022-08-26T15:53:24;27.90;96.50
4874;DHT22;2451;49.970;9.068;2022-08-26T15:55:53;28.00;96.30
4874;DHT22;2451;49.970;9.068;2022-08-26T15:58:20;28.00;96.30
4874;DHT22;2451;49.970;9.068;2022-08-26T16:00:46;28.00;95.80
4874;DHT22;2451;49.970;9.068;2022-08-26T16:03:11;27.90;95.90
4874;DHT22;2451;49.970;9.068;2022-08-26T16:05:41;27.90;95.90
4874;DHT22;2451;49.970;9.068;2022-08-26T16:08:08;27.90;95.60
4874;DHT22;2451;49.970;9.068;2022-08-26T16:10:36;27.90;96.00
4874;DHT22;2451;49.970;9.068;2022-08-26T16:13:01;27.90;96.00
4874;DHT22;2451;49.970;9.068;2022-08-26T16:15:27;27.80;96.40
4874;DHT22;2451;49.970;9.068;2022-08-26T16:17:53;27.70;96.20
4874;DHT22;2451;49.970;9.068;2022-08-26T16:20:18;27.70;96.40
4874;DHT22;2451;49.970;9.068;2022-08-26T16:22:44;27.70;96.90
4874;DHT22;2451;49.970;9.068;2022-08-26T16:25:10;27.60;97.20
4874;DHT22;2451;49.970;9.068;2022-08-26T16:27:35;27.60;97.50
4874;DHT22;2451;49.970;9.068;2022-08-26T16:30:04;27.60;97.70
4874;DHT22;2451;49.970;9.068;2022-08-26T16:32:30;27.60;97.60
4874;DHT22;2451;49.970;9.068;2022-08-26T16:34:55;27.60;98.40
4874;DHT22;2451;49.970;9.068;2022-08-26T16:37:21;27.60;98.00
4874;DHT22;2451;49.970;9.068;2022-08-26T16:39:46;27.60;98.20
4874;DHT22;2451;49.970;9.068;2022-08-26T16:42:12;27.50;98.40
4874;DHT22;2451;49.970;9.068;2022-08-26T16:44:37;27.50;98.60
4874;DHT22;2451;49.970;9.068;2022-08-26T16:47:18;27.50;99.10
4874;DHT22;2451;49.970;9.068;2022-08-26T16:49:43;27.50;98.80
4874;DHT22;2451;49.970;9.068;2022-08-26T16:52:10;27.50;99.30
4874;DHT22;2451;49.970;9.068;2022-08-26T16:54:37;27.50;99.50
4874;DHT22;2451;49.970;9.068;2022-08-26T16:57:03;27.50;99.70
4874;DHT22;2451;49.970;9.068;2022-08-26T16:59:31;27.60;99.90
4874;DHT22;2451;49.970;9.068;2022-08-26T17:01:56;27.60;99.90
4874;DHT22;2451;49.970;9.068;2022-08-26T17:04:22;27.60;99.90
4874;DHT22;2451;49.970;9.068;2022-08-26T17:06:48;27.60;99.90
4874;DHT22;2451;49.970;9.068;2022-08-26T17:09:14;27.60;99.80
4874;DHT22;2451;49.970;9.068;2022-08-26T17:11:39;27.60;99.90
4874;DHT22;2451;49.970;9.068;2022-08-26T17:14:05;27.60;99.90